Global Glory — 3FHR8 — position and weather

sailwx.info

Track history (hours):
 
Tides and Currents Weather Stations Pressure Air Temp Water Temp Dewpoint Dewpoint Depression Visibility Wind Speed Wind Dir Waves Ship Positions

Global Glory

Last reported at 2016-Feb-08 21:16 UTC. Time now 2016-Feb-14 18:57 UTC.
Position N 01°15' E 104°03'.

Length 189 m; draft 5.7 m.

Type: Cargo ship. MMSI: 354338000.

Date/timePositionNaut miles runAvg speedWind from/ knotsBaromVisibWave heightAir tempDewpointWater temp
2016-Feb-08 21:16N 01°15' E 104°03'811.0
2016-Feb-08 20:33N 01°14' E 103°55'2 2.4
2016-Feb-08 19:31N 01°16' E 103°54'0 0.0
2016-Feb-08 18:25N 01°16' E 103°54'0 0.1
2016-Feb-08 17:13N 01°16' E 103°54'0 0.0
2016-Feb-08 16:31N 01°16' E 103°54'0 0.0
2016-Feb-08 15:31N 01°16' E 103°54'0 0.0
2016-Feb-08 14:25N 01°16' E 103°54'0 0.0
2016-Feb-08 13:31N 01°16' E 103°54'0 0.0
2016-Feb-08 12:25N 01°16' E 103°54'2 2.0
2016-Feb-08 11:33N 01°14' E 103°53'3 2.9
2016-Feb-08 10:33N 01°14' E 103°56'7 6.9
2016-Feb-08 09:32N 01°16' E 104°03'  
Track history (hours):
 
Tides and Currents Weather Stations Pressure Air Temp Water Temp Dewpoint Dewpoint Depression Visibility Wind Speed Wind Dir Waves Ship Positions

Global Glory

Last reported at 2016-Feb-08 21:16 UTC. Time now 2016-Feb-14 18:57 UTC.
Position N 01°15' E 104°03'.

Length 189 m; draft 5.7 m.

Type: Cargo ship. MMSI: 354338000.

Date/timePositionNaut miles runAvg speedWind from/ knotsBaromVisibWave heightAir tempDewpointWater temp
2016-Feb-08 21:16N 01°15' E 104°03'811.0
2016-Feb-08 20:33N 01°14' E 103°55'2 2.4
2016-Feb-08 19:31N 01°16' E 103°54'0 0.0
2016-Feb-08 18:25N 01°16' E 103°54'0 0.1
2016-Feb-08 17:13N 01°16' E 103°54'0 0.0
2016-Feb-08 16:31N 01°16' E 103°54'0 0.0
2016-Feb-08 15:31N 01°16' E 103°54'0 0.0
2016-Feb-08 14:25N 01°16' E 103°54'0 0.0
2016-Feb-08 13:31N 01°16' E 103°54'0 0.0
2016-Feb-08 12:25N 01°16' E 103°54'2 2.0
2016-Feb-08 11:33N 01°14' E 103°53'3 2.9
2016-Feb-08 10:33N 01°14' E 103°56'7 6.9
2016-Feb-08 09:32N 01°16' E 104°03'  

Dump ship's entire track history